Time;durP1;ratioP1;P1;durP2;ratioP2;P2;SDS_P1;SDS_P2;PMS_P1;PMS_P2;Temp;Humidity;BMP_temperature;BMP_pressure;BME280_temperature;BME280_humidity;BME280_pressure;Samples;Min_cycle;Max_cycle;Signal;HPM_P1;HPM_P2
2023/07/02 00:00:04;;;;;;;;;;;16.10;99.90;;;;;;5137855;27;20290;-41
2023/07/02 00:02:30;;;;;;;;;;;16.10;99.90;;;;;;5137272;27;19908;-42
2023/07/02 00:04:55;;;;;;;;;;;16.10;99.90;;;;;;5137714;27;19908;-43
2023/07/02 00:07:21;;;;;;;;;;;16.10;99.90;;;;;;5137345;27;20010;-43
2023/07/02 00:09:46;;;;;;;;;;;16.00;99.90;;;;;;5136831;27;20258;-43
2023/07/02 00:12:13;;;;;;;;;;;16.00;99.90;;;;;;5137671;27;19915;-43
2023/07/02 00:14:38;;;;;;;;;;;15.90;99.90;;;;;;5137656;27;19907;-41
2023/07/02 00:17:04;;;;;;;;;;;15.90;99.90;;;;;;5136818;27;20376;-42
2023/07/02 00:19:29;;;;;;;;;;;15.90;99.90;;;;;;5137376;27;19975;-42
2023/07/02 00:21:55;;;;;;;;;;;15.90;99.90;;;;;;5137411;27;19912;-46
2023/07/02 00:24:20;;;;;;;;;;;15.80;99.90;;;;;;5136591;27;20289;-45
2023/07/02 00:26:46;;;;;;;;;;;15.80;99.90;;;;;;5137327;27;20002;-42
2023/07/02 00:29:11;;;;;;;;;;;15.90;99.90;;;;;;5136782;27;19985;-41
2023/07/02 00:31:37;;;;;;;;;;;15.90;99.90;;;;;;5136486;27;19950;-41
2023/07/02 00:34:03;;;;;;;;;;;15.90;99.90;;;;;;5137176;27;19913;-41
2023/07/02 00:36:29;;;;;;;;;;;15.90;99.90;;;;;;5136398;27;19946;-41
2023/07/02 00:38:55;;;;;;;;;;;16.00;99.90;;;;;;5136716;27;19966;-40
2023/07/02 00:41:20;;;;;;;;;;;15.90;99.90;;;;;;5137104;27;19914;-42
2023/07/02 00:43:46;;;;;;;;;;;15.90;99.90;;;;;;5136213;27;19911;-43
2023/07/02 00:46:17;;;;;;;;;;;15.90;99.90;;;;;;5136998;27;19943;-42
2023/07/02 00:48:46;;;;;;;;;;;15.80;99.90;;;;;;5137055;27;19959;-41
2023/07/02 00:51:15;;;;;;;;;;;15.80;99.90;;;;;;5136176;27;19908;-43
2023/07/02 00:53:41;;;;;;;;;;;15.80;99.90;;;;;;5136797;27;19908;-41
2023/07/02 00:56:07;;;;;;;;;;;15.70;99.90;;;;;;5136816;27;20250;-44
2023/07/02 00:58:36;;;;;;;;;;;15.60;99.90;;;;;;5135991;27;19922;-42
2023/07/02 01:01:02;;;;;;;;;;;15.60;99.90;;;;;;5136693;27;19911;-42
2023/07/02 01:03:28;;;;;;;;;;;15.50;99.90;;;;;;5136737;27;19912;-43
2023/07/02 01:05:54;;;;;;;;;;;15.40;99.90;;;;;;5135380;27;19955;-41
2023/07/02 01:08:19;;;;;;;;;;;15.40;99.90;;;;;;5135788;27;19949;-44
2023/07/02 01:10:45;;;;;;;;;;;15.30;99.90;;;;;;5136524;27;19911;-41
2023/07/02 01:13:16;;;;;;;;;;;15.30;99.90;;;;;;5135773;27;19907;-43
2023/07/02 01:15:42;;;;;;;;;;;15.20;99.90;;;;;;5136660;27;20381;-42
2023/07/02 01:18:08;;;;;;;;;;;15.20;99.90;;;;;;5136639;27;19914;-41
2023/07/02 01:20:34;;;;;;;;;;;15.10;99.90;;;;;;5135695;27;20289;-43
2023/07/02 01:23:03;;;;;;;;;;;15.10;99.90;;;;;;5135824;27;19926;-42
2023/07/02 01:25:29;;;;;;;;;;;15.10;99.90;;;;;;5136027;27;19918;-42
2023/07/02 01:27:55;;;;;;;;;;;15.10;99.90;;;;;;5135476;27;19957;-41
2023/07/02 01:30:20;;;;;;;;;;;15.00;99.90;;;;;;5136261;27;19914;-42
2023/07/02 01:32:46;;;;;;;;;;;15.00;99.90;;;;;;5135368;27;19908;-42
2023/07/02 01:35:11;;;;;;;;;;;15.00;99.90;;;;;;5135753;27;19935;-43
2023/07/02 01:37:38;;;;;;;;;;;14.90;99.90;;;;;;5135986;27;19912;-42
2023/07/02 01:40:06;;;;;;;;;;;14.90;99.90;;;;;;5135012;27;19963;-42
2023/07/02 01:42:32;;;;;;;;;;;14.90;99.90;;;;;;5135466;27;20006;-42
2023/07/02 01:44:58;;;;;;;;;;;14.90;99.90;;;;;;5135640;27;20014;-41
2023/07/02 01:47:23;;;;;;;;;;;14.80;99.90;;;;;;5135302;27;19915;-42
2023/07/02 01:49:49;;;;;;;;;;;14.80;99.90;;;;;;5135799;27;19966;-43
2023/07/02 01:52:15;;;;;;;;;;;14.80;99.90;;;;;;5135851;27;19907;-42
2023/07/02 01:54:41;;;;;;;;;;;14.70;99.90;;;;;;5134902;27;20392;-42
2023/07/02 01:57:06;;;;;;;;;;;14.60;99.90;;;;;;5135529;27;19930;-46
2023/07/02 01:59:32;;;;;;;;;;;14.60;99.90;;;;;;5135611;27;19919;-42
2023/07/02 02:01:58;;;;;;;;;;;14.60;99.90;;;;;;5134777;27;19972;-45
2023/07/02 02:04:23;;;;;;;;;;;14.60;99.90;;;;;;5135631;27;20365;-42
2023/07/02 02:06:49;;;;;;;;;;;14.50;99.90;;;;;;5135378;27;19930;-43
2023/07/02 02:09:14;;;;;;;;;;;14.40;99.90;;;;;;5134633;27;20412;-42
2023/07/02 02:11:44;;;;;;;;;;;14.40;99.90;;;;;;5135316;27;20018;-42
2023/07/02 02:14:09;;;;;;;;;;;14.30;99.90;;;;;;5135043;27;19912;-42
2023/07/02 02:16:35;;;;;;;;;;;14.30;99.90;;;;;;5134489;27;19931;-43
2023/07/02 02:19:00;;;;;;;;;;;14.20;99.90;;;;;;5134942;27;20380;-41
2023/07/02 02:21:26;;;;;;;;;;;14.10;99.90;;;;;;5135181;27;20202;-42
2023/07/02 02:23:52;;;;;;;;;;;14.10;99.90;;;;;;5134340;27;19915;-41
2023/07/02 02:26:17;;;;;;;;;;;14.10;99.90;;;;;;5134948;27;19907;-41
2023/07/02 02:28:43;;;;;;;;;;;14.00;99.90;;;;;;5134973;27;20439;-42
2023/07/02 02:31:09;;;;;;;;;;;14.00;99.90;;;;;;5134337;27;20354;-43
2023/07/02 02:33:35;;;;;;;;;;;13.90;99.90;;;;;;5134927;27;20366;-41
2023/07/02 02:36:03;;;;;;;;;;;13.90;99.90;;;;;;5134096;27;19961;-41
2023/07/02 02:38:29;;;;;;;;;;;13.90;99.90;;;;;;5134483;27;19915;-41
2023/07/02 02:40:54;;;;;;;;;;;13.90;99.90;;;;;;5134801;27;19912;-41
2023/07/02 02:43:20;;;;;;;;;;;13.90;99.90;;;;;;5133749;27;20482;-42
2023/07/02 02:45:46;;;;;;;;;;;13.90;99.90;;;;;;5134469;27;20361;-42
2023/07/02 02:48:12;;;;;;;;;;;13.80;99.90;;;;;;5134718;27;19995;-43
2023/07/02 02:50:41;;;;;;;;;;;13.80;99.90;;;;;;5133778;27;20258;-41
2023/07/02 02:53:07;;;;;;;;;;;13.80;99.90;;;;;;5134455;27;20373;-43
2023/07/02 02:55:32;;;;;;;;;;;13.80;99.90;;;;;;5134612;27;19946;-43
2023/07/02 02:57:57;;;;;;;;;;;13.80;99.90;;;;;;5133602;27;19908;-41
2023/07/02 03:00:23;;;;;;;;;;;13.80;99.90;;;;;;5134378;27;20018;-42
2023/07/02 03:02:48;;;;;;;;;;;13.70;99.90;;;;;;5134502;27;19915;-41
2023/07/02 03:05:16;;;;;;;;;;;13.70;99.90;;;;;;5133754;27;19916;-41
2023/07/02 03:07:41;;;;;;;;;;;13.70;99.90;;;;;;5134284;27;19907;-43
2023/07/02 03:10:07;;;;;;;;;;;13.70;99.90;;;;;;5134246;27;19907;-41
2023/07/02 03:12:32;;;;;;;;;;;13.80;99.90;;;;;;5133533;27;19953;-41
2023/07/02 03:14:58;;;;;;;;;;;13.70;99.90;;;;;;5133917;27;20009;-42
2023/07/02 03:17:23;;;;;;;;;;;13.80;99.90;;;;;;5134036;27;19994;-42
2023/07/02 03:19:49;;;;;;;;;;;13.70;99.90;;;;;;5133340;27;19980;-41
2023/07/02 03:22:15;;;;;;;;;;;13.80;99.90;;;;;;5134146;27;19907;-45
2023/07/02 03:24:40;;;;;;;;;;;13.80;99.90;;;;;;5134009;27;19907;-42
2023/07/02 03:27:06;;;;;;;;;;;13.80;99.90;;;;;;5133468;27;19908;-41
2023/07/02 03:29:33;;;;;;;;;;;13.70;99.90;;;;;;5133528;27;19990;-41
2023/07/02 03:31:58;;;;;;;;;;;13.70;99.90;;;;;;5133929;27;19907;-42
2023/07/02 03:34:24;;;;;;;;;;;13.70;99.90;;;;;;5133220;27;19992;-43
2023/07/02 03:36:49;;;;;;;;;;;13.70;99.90;;;;;;5133732;27;20373;-43
2023/07/02 03:39:16;;;;;;;;;;;13.70;99.90;;;;;;5133232;27;19998;-49
2023/07/02 03:41:41;;;;;;;;;;;13.80;99.90;;;;;;5115203;27;19930;-42
2023/07/02 03:44:07;;;;;;;;;;;13.80;99.90;;;;;;5133298;27;20369;-42
2023/07/02 03:46:32;;;;;;;;;;;13.80;99.90;;;;;;5132903;27;19908;-43
2023/07/02 03:48:58;;;;;;;;;;;13.80;99.90;;;;;;5133673;27;19908;-41
2023/07/02 03:51:23;;;;;;;;;;;13.90;99.90;;;;;;5133661;27;19911;-42
2023/07/02 03:53:49;;;;;;;;;;;13.90;99.90;;;;;;5132797;28;19908;-46
2023/07/02 03:56:14;;;;;;;;;;;14.00;99.90;;;;;;5133731;28;19931;-43
2023/07/02 03:58:40;;;;;;;;;;;14.00;99.90;;;;;;5133615;28;19912;-43
2023/07/02 04:01:06;;;;;;;;;;;14.00;99.90;;;;;;5132845;28;20007;-43
2023/07/02 04:03:31;;;;;;;;;;;14.00;99.90;;;;;;5133629;28;20273;-42
2023/07/02 04:05:57;;;;;;;;;;;14.00;99.90;;;;;;5133501;28;19907;-44
2023/07/02 04:08:24;;;;;;;;;;;14.00;99.90;;;;;;5132696;28;19907;-41
2023/07/02 04:10:49;;;;;;;;;;;14.00;99.90;;;;;;5133578;28;19915;-43
2023/07/02 04:13:15;;;;;;;;;;;14.00;99.90;;;;;;5133202;28;20363;-43
2023/07/02 04:15:40;;;;;;;;;;;14.10;99.90;;;;;;5132656;28;19912;-43
2023/07/02 04:18:06;;;;;;;;;;;14.20;99.90;;;;;;5133460;28;20366;-43
2023/07/02 04:20:31;;;;;;;;;;;14.20;99.90;;;;;;5133486;28;19912;-42
2023/07/02 04:22:57;;;;;;;;;;;14.20;99.90;;;;;;5132164;28;19964;-41
2023/07/02 04:25:23;;;;;;;;;;;14.20;99.90;;;;;;5133368;28;20006;-41
2023/07/02 04:27:48;;;;;;;;;;;14.20;99.90;;;;;;5133339;28;19994;-42
2023/07/02 04:30:14;;;;;;;;;;;14.20;99.90;;;;;;5132593;28;19911;-43
2023/07/02 04:32:40;;;;;;;;;;;14.20;99.90;;;;;;5133316;28;19907;-41
2023/07/02 04:35:08;;;;;;;;;;;14.20;99.90;;;;;;5133333;28;19911;-43
2023/07/02 04:37:34;;;;;;;;;;;14.20;99.90;;;;;;5132414;28;19935;-42
2023/07/02 04:40:00;;;;;;;;;;;14.30;99.90;;;;;;5132934;28;20391;-42
2023/07/02 04:42:27;;;;;;;;;;;14.30;99.90;;;;;;5136649;27;19907;-41
2023/07/02 04:44:56;;;;;;;;;;;14.40;99.90;;;;;;5136081;27;19935;-41
2023/07/02 04:47:21;;;;;;;;;;;14.50;99.90;;;;;;5137098;27;19908;-43
2023/07/02 04:49:47;;;;;;;;;;;14.60;99.90;;;;;;5136296;27;19907;-43
2023/07/02 04:52:12;;;;;;;;;;;14.70;99.90;;;;;;5136635;27;19911;-41
2023/07/02 04:54:38;;;;;;;;;;;14.70;99.90;;;;;;5136890;27;19915;-43
2023/07/02 04:57:04;;;;;;;;;;;14.70;99.90;;;;;;5136174;27;19915;-43
2023/07/02 04:59:29;;;;;;;;;;;14.70;99.90;;;;;;5136871;27;19916;-43
2023/07/02 05:01:55;;;;;;;;;;;14.80;99.90;;;;;;5136781;27;19920;-41
2023/07/02 05:04:20;;;;;;;;;;;14.70;99.90;;;;;;5136293;27;20309;-43
2023/07/02 05:06:46;;;;;;;;;;;14.70;99.90;;;;;;5136605;27;20060;-43
2023/07/02 05:09:11;;;;;;;;;;;14.70;99.90;;;;;;5136853;27;19914;-44
2023/07/02 05:11:37;;;;;;;;;;;14.70;99.90;;;;;;5135852;27;19908;-42
2023/07/02 05:14:02;;;;;;;;;;;14.70;99.90;;;;;;5136096;27;20388;-41
2023/07/02 05:16:28;;;;;;;;;;;14.80;99.90;;;;;;5136063;27;19919;-42
2023/07/02 05:18:53;;;;;;;;;;;14.80;99.90;;;;;;5135568;27;20387;-44
2023/07/02 05:21:19;;;;;;;;;;;14.80;99.90;;;;;;5136399;27;19912;-43
2023/07/02 05:23:44;;;;;;;;;;;14.80;99.90;;;;;;5136230;27;19907;-43
2023/07/02 05:26:10;;;;;;;;;;;14.80;99.90;;;;;;5135625;27;19907;-42
2023/07/02 05:28:36;;;;;;;;;;;14.90;99.90;;;;;;5136291;27;19952;-41
2023/07/02 05:31:01;;;;;;;;;;;14.90;99.90;;;;;;5136303;27;19972;-43
2023/07/02 05:33:27;;;;;;;;;;;14.90;99.90;;;;;;5135563;27;19914;-41
2023/07/02 05:35:52;;;;;;;;;;;15.00;99.90;;;;;;5136364;27;20377;-42
2023/07/02 05:38:18;;;;;;;;;;;15.10;99.90;;;;;;5135953;27;19908;-42
2023/07/02 05:40:44;;;;;;;;;;;15.10;99.90;;;;;;5135210;27;20325;-42
2023/07/02 05:43:10;;;;;;;;;;;15.20;99.90;;;;;;5136167;27;19907;-41
2023/07/02 05:45:35;;;;;;;;;;;15.20;99.90;;;;;;5135677;27;19911;-42
2023/07/02 05:48:01;;;;;;;;;;;15.30;99.90;;;;;;5135111;27;20255;-42
2023/07/02 05:50:26;;;;;;;;;;;15.30;99.90;;;;;;5135473;27;19965;-42
2023/07/02 05:52:52;;;;;;;;;;;15.40;99.90;;;;;;5134774;27;20415;-42
2023/07/02 05:55:17;;;;;;;;;;;15.40;99.90;;;;;;5135277;27;19914;-43
2023/07/02 05:57:42;;;;;;;;;;;15.50;99.90;;;;;;5127362;27;20420;-43
2023/07/02 06:00:08;;;;;;;;;;;15.50;99.90;;;;;;5121639;27;20022;-41
2023/07/02 06:02:34;;;;;;;;;;;15.70;99.90;;;;;;5115106;28;20371;-41
2023/07/02 06:05:01;;;;;;;;;;;15.70;99.90;;;;;;5117168;27;20289;-41
2023/07/02 06:07:27;;;;;;;;;;;15.80;99.90;;;;;;5125626;27;19963;-42
2023/07/02 06:09:52;;;;;;;;;;;15.90;99.90;;;;;;5116505;27;19916;-43
2023/07/02 06:12:18;;;;;;;;;;;16.00;99.90;;;;;;5122521;27;19950;-41
2023/07/02 06:14:43;;;;;;;;;;;16.10;99.90;;;;;;5133508;27;19918;-40
2023/07/02 06:17:09;;;;;;;;;;;16.20;99.90;;;;;;5119423;27;19911;-43
2023/07/02 06:19:36;;;;;;;;;;;16.30;99.90;;;;;;5114580;28;19920;-42
2023/07/02 06:22:01;;;;;;;;;;;16.40;99.90;;;;;;5125640;27;19926;-41
2023/07/02 06:24:27;;;;;;;;;;;16.40;99.90;;;;;;5134590;27;19907;-42
2023/07/02 06:26:52;;;;;;;;;;;16.50;99.90;;;;;;5134532;27;19908;-42
2023/07/02 06:29:18;;;;;;;;;;;16.60;99.90;;;;;;5132618;27;19960;-43
2023/07/02 06:31:43;;;;;;;;;;;16.70;99.90;;;;;;5130394;27;19912;-42
2023/07/02 06:34:09;;;;;;;;;;;16.80;99.90;;;;;;5132202;27;19911;-45
2023/07/02 06:36:34;;;;;;;;;;;17.00;99.90;;;;;;5128353;27;19985;-41
2023/07/02 06:39:00;;;;;;;;;;;17.00;99.90;;;;;;5127797;27;19923;-42
2023/07/02 06:41:25;;;;;;;;;;;17.10;99.90;;;;;;5131379;27;19912;-42
2023/07/02 06:43:51;;;;;;;;;;;17.10;99.90;;;;;;5131790;27;19950;-44
2023/07/02 06:46:16;;;;;;;;;;;17.00;99.90;;;;;;5133964;27;19907;-42
2023/07/02 06:48:42;;;;;;;;;;;16.90;99.90;;;;;;5133912;27;19912;-42
2023/07/02 06:51:08;;;;;;;;;;;16.90;99.90;;;;;;5133350;27;19907;-44
2023/07/02 06:53:34;;;;;;;;;;;16.80;99.90;;;;;;5130271;27;20359;-43
2023/07/02 06:55:59;;;;;;;;;;;16.80;99.90;;;;;;5124270;27;19915;-40
2023/07/02 06:58:25;;;;;;;;;;;16.70;99.90;;;;;;5132923;27;19963;-43
2023/07/02 07:00:50;;;;;;;;;;;16.70;99.90;;;;;;5124052;27;19923;-42
2023/07/02 07:03:16;;;;;;;;;;;16.90;99.90;;;;;;5124446;27;19947;-41
2023/07/02 07:05:41;;;;;;;;;;;17.10;99.90;;;;;;5122579;27;19926;-42
2023/07/02 07:08:07;;;;;;;;;;;17.30;99.90;;;;;;5120669;27;19912;-40
2023/07/02 07:10:34;;;;;;;;;;;17.40;99.90;;;;;;5124185;27;19911;-42
2023/07/02 07:13:00;;;;;;;;;;;17.40;99.90;;;;;;5130413;27;20056;-42
2023/07/02 07:15:26;;;;;;;;;;;17.40;99.90;;;;;;5122762;27;19922;-41
2023/07/02 07:17:52;;;;;;;;;;;17.30;99.90;;;;;;5131839;27;19908;-43
2023/07/02 07:20:17;;;;;;;;;;;17.20;99.90;;;;;;5133902;27;19915;-40
2023/07/02 07:22:43;;;;;;;;;;;17.10;99.90;;;;;;5122149;27;19919;-41
2023/07/02 07:25:08;;;;;;;;;;;17.00;99.90;;;;;;5118088;27;19911;-40
2023/07/02 07:27:34;;;;;;;;;;;17.00;99.90;;;;;;5133770;27;20021;-42
2023/07/02 07:29:59;;;;;;;;;;;16.90;99.90;;;;;;5131445;27;20001;-41
2023/07/02 07:32:24;;;;;;;;;;;16.80;99.90;;;;;;5133125;27;19954;-43
2023/07/02 07:34:50;;;;;;;;;;;16.80;99.90;;;;;;5118695;27;20157;-43
2023/07/02 07:37:16;;;;;;;;;;;16.70;99.90;;;;;;5125307;27;19911;-46
2023/07/02 07:39:41;;;;;;;;;;;16.80;99.90;;;;;;5132686;27;19919;-41
2023/07/02 07:42:07;;;;;;;;;;;17.00;99.90;;;;;;5133756;27;19907;-40
2023/07/02 07:44:32;;;;;;;;;;;17.10;99.90;;;;;;5133642;27;19911;-43
2023/07/02 07:46:58;;;;;;;;;;;17.20;99.90;;;;;;5132944;27;20281;-42
2023/07/02 07:49:23;;;;;;;;;;;17.20;99.90;;;;;;5133680;27;19908;-40
2023/07/02 07:51:49;;;;;;;;;;;17.40;99.90;;;;;;5132713;27;20380;-42
2023/07/02 07:54:14;;;;;;;;;;;17.50;99.90;;;;;;5122631;28;19915;-42
2023/07/02 07:56:40;;;;;;;;;;;17.80;99.90;;;;;;5123491;28;19922;-43
2023/07/02 07:59:05;;;;;;;;;;;17.90;99.90;;;;;;5118717;28;19970;-43
2023/07/02 08:01:31;;;;;;;;;;;17.90;99.90;;;;;;5127619;28;20350;-42
2023/07/02 08:03:56;;;;;;;;;;;17.80;99.90;;;;;;5133299;28;19914;-41
2023/07/02 08:06:22;;;;;;;;;;;17.80;99.90;;;;;;5133315;28;20312;-41
2023/07/02 08:08:47;;;;;;;;;;;17.90;99.90;;;;;;5131281;28;19937;-42
2023/07/02 08:11:13;;;;;;;;;;;18.00;99.90;;;;;;5113589;28;19964;-45
2023/07/02 08:13:38;;;;;;;;;;;18.20;99.90;;;;;;5101404;28;20002;-42
2023/07/02 08:16:04;;;;;;;;;;;18.20;99.90;;;;;;5130085;27;19916;-40
2023/07/02 08:18:29;;;;;;;;;;;18.20;99.90;;;;;;5135743;27;19916;-40
2023/07/02 08:20:55;;;;;;;;;;;18.10;99.90;;;;;;5136484;27;19912;-42
2023/07/02 08:23:20;;;;;;;;;;;18.20;99.90;;;;;;5137707;27;19907;-41
2023/07/02 08:25:46;;;;;;;;;;;18.40;99.90;;;;;;5137754;27;20273;-42
2023/07/02 08:28:11;;;;;;;;;;;18.50;99.90;;;;;;5136884;27;19915;-43
2023/07/02 08:30:37;;;;;;;;;;;18.50;99.90;;;;;;5137140;27;19950;-40
2023/07/02 08:33:02;;;;;;;;;;;18.50;99.90;;;;;;5124884;27;19908;-41
2023/07/02 08:35:29;;;;;;;;;;;18.50;99.90;;;;;;5116069;28;19908;-43
2023/07/02 08:37:54;;;;;;;;;;;18.40;99.90;;;;;;5116453;28;19932;-40
2023/07/02 08:40:20;;;;;;;;;;;18.40;99.90;;;;;;5116394;28;19920;-43
2023/07/02 08:42:47;;;;;;;;;;;18.50;99.90;;;;;;5117817;27;19961;-41
2023/07/02 08:45:14;;;;;;;;;;;18.70;99.90;;;;;;5136646;27;19912;-41
2023/07/02 08:47:39;;;;;;;;;;;18.70;99.90;;;;;;5136889;27;19915;-41
2023/07/02 08:50:05;;;;;;;;;;;18.60;99.90;;;;;;5136157;27;19911;-43
2023/07/02 08:52:31;;;;;;;;;;;18.50;99.90;;;;;;5136446;27;19992;-41
2023/07/02 08:54:56;;;;;;;;;;;18.30;99.90;;;;;;5135903;27;19998;-41
2023/07/02 08:57:22;;;;;;;;;;;18.20;99.90;;;;;;5135956;27;20377;-41
2023/07/02 08:59:48;;;;;;;;;;;18.00;99.90;;;;;;5126738;27;19985;-43
2023/07/02 09:02:14;;;;;;;;;;;18.00;99.90;;;;;;5136597;27;19907;-41
2023/07/02 09:04:40;;;;;;;;;;;18.00;99.90;;;;;;5130138;27;20012;-42
2023/07/02 09:07:07;;;;;;;;;;;18.00;99.90;;;;;;5136309;27;19915;-41
2023/07/02 09:09:33;;;;;;;;;;;18.00;99.90;;;;;;5126806;27;19915;-42
2023/07/02 09:11:58;;;;;;;;;;;18.00;99.90;;;;;;5134077;27;19998;-41
2023/07/02 09:14:25;;;;;;;;;;;17.80;99.90;;;;;;5135717;27;19918;-44
2023/07/02 09:17:00;;;;;;;;;;;17.70;99.90;;;;;;5135048;27;19908;-40
2023/07/02 09:19:26;;;;;;;;;;;17.40;99.90;;;;;;5135670;27;19964;-42
2023/07/02 09:21:51;;;;;;;;;;;17.30;99.90;;;;;;5135229;27;19907;-42
2023/07/02 09:24:21;;;;;;;;;;;17.30;99.90;;;;;;5134207;27;19915;-44
2023/07/02 09:26:49;;;;;;;;;;;17.40;99.90;;;;;;5134768;27;20240;-42
2023/07/02 09:29:23;;;;;;;;;;;17.50;99.90;;;;;;5134431;27;19911;-42
2023/07/02 09:31:48;;;;;;;;;;;17.50;99.90;;;;;;5134654;27;19914;-45
2023/07/02 09:34:14;;;;;;;;;;;17.80;99.90;;;;;;5135252;27;19912;-43
2023/07/02 09:36:43;;;;;;;;;;;18.10;99.90;;;;;;5127979;27;19908;-42
2023/07/02 09:39:11;;;;;;;;;;;18.50;99.90;;;;;;5114269;28;19926;-41
2023/07/02 09:41:36;;;;;;;;;;;18.80;99.90;;;;;;5115408;28;19980;-43
2023/07/02 09:44:02;;;;;;;;;;;19.00;99.90;;;;;;5115278;28;20426;-42
2023/07/02 09:46:28;;;;;;;;;;;19.30;99.90;;;;;;5114622;28;19908;-40
2023/07/02 09:48:53;;;;;;;;;;;19.20;99.90;;;;;;5115207;28;20305;-40
2023/07/02 09:51:19;;;;;;;;;;;19.30;99.90;;;;;;5115296;28;19914;-47
2023/07/02 09:53:44;;;;;;;;;;;19.30;99.90;;;;;;5114233;28;19911;-40
2023/07/02 09:56:10;;;;;;;;;;;19.20;99.90;;;;;;5115126;28;19908;-41
2023/07/02 09:58:36;;;;;;;;;;;19.00;99.90;;;;;;5114743;28;20374;-42
2023/07/02 10:01:02;;;;;;;;;;;18.80;99.90;;;;;;5117448;27;19997;-40
2023/07/02 10:03:28;;;;;;;;;;;18.80;99.90;;;;;;5134667;27;20327;-43
2023/07/02 10:06:02;;;;;;;;;;;18.60;99.90;;;;;;5134197;27;20281;-43
2023/07/02 10:08:30;;;;;;;;;;;18.50;99.90;;;;;;5134007;27;19919;-40
2023/07/02 10:11:06;;;;;;;;;;;18.40;99.90;;;;;;5133771;27;19965;-40
2023/07/02 10:13:31;;;;;;;;;;;18.30;99.90;;;;;;5133901;27;19919;-40
2023/07/02 10:16:03;;;;;;;;;;;18.30;99.90;;;;;;5134656;27;19907;-41
2023/07/02 10:18:28;;;;;;;;;;;18.40;99.90;;;;;;5134122;27;19954;-41
2023/07/02 10:20:54;;;;;;;;;;;18.60;99.90;;;;;;5122758;27;19962;-43
2023/07/02 10:23:20;;;;;;;;;;;18.70;99.90;;;;;;5132894;27;19960;-41
2023/07/02 10:25:45;;;;;;;;;;;18.90;99.90;;;;;;5131675;27;19968;-41
2023/07/02 10:28:14;;;;;;;;;;;19.00;99.90;;;;;;5133462;27;20349;-42
2023/07/02 10:30:40;;;;;;;;;;;19.00;99.90;;;;;;5133802;27;19943;-40
2023/07/02 10:33:18;;;;;;;;;;;18.70;99.90;;;;;;5134180;27;19954;-42
2023/07/02 10:35:44;;;;;;;;;;;18.50;99.90;;;;;;5132566;27;19907;-42
2023/07/02 10:38:15;;;;;;;;;;;18.40;99.90;;;;;;5133754;27;20600;-41
2023/07/02 10:40:41;;;;;;;;;;;18.20;99.90;;;;;;5133252;27;19923;-42
2023/07/02 10:43:07;;;;;;;;;;;18.30;99.90;;;;;;5121392;27;19912;-44
2023/07/02 10:45:34;;;;;;;;;;;18.50;99.90;;;;;;5119100;27;19933;-42
2023/07/02 10:48:01;;;;;;;;;;;18.90;99.90;;;;;;5128746;27;19912;-43
2023/07/02 10:50:27;;;;;;;;;;;19.10;99.90;;;;;;5131267;27;20327;-42
2023/07/02 10:52:52;;;;;;;;;;;19.20;99.90;;;;;;5132893;27;19908;-41
2023/07/02 10:55:24;;;;;;;;;;;19.10;99.90;;;;;;5133136;27;19919;-49
2023/07/02 10:57:53;;;;;;;;;;;19.00;99.90;;;;;;5152536;27;20313;-44
2023/07/02 11:00:19;;;;;;;;;;;19.20;99.90;;;;;;5154209;27;20404;-41
2023/07/02 11:02:46;;;;;;;;;;;19.30;99.90;;;;;;5137301;27;19922;-43
2023/07/02 11:05:12;;;;;;;;;;;19.50;99.90;;;;;;5113800;27;19912;-41
2023/07/02 11:07:41;;;;;;;;;;;19.90;99.90;;;;;;5118288;27;20274;-44
2023/07/02 11:10:08;;;;;;;;;;;20.20;99.90;;;;;;5118464;27;19911;-41
2023/07/02 11:12:34;;;;;;;;;;;20.10;99.90;;;;;;5123248;27;20370;-41
2023/07/02 11:15:17;;;;;;;;;;;19.90;99.90;;;;;;5112464;27;19912;-40
2023/07/02 11:17:43;;;;;;;;;;;19.60;99.90;;;;;;5123733;27;19908;-40
2023/07/02 11:20:09;;;;;;;;;;;19.40;99.90;;;;;;5113435;28;19926;-41
2023/07/02 11:22:35;;;;;;;;;;;19.40;99.90;;;;;;5120019;27;20005;-42
2023/07/02 11:25:10;;;;;;;;;;;19.40;99.90;;;;;;5128224;27;19915;-40
2023/07/02 11:27:35;;;;;;;;;;;19.40;99.90;;;;;;5114060;27;19998;-42
2023/07/02 11:30:01;;;;;;;;;;;19.50;99.90;;;;;;5122335;27;19977;-41
2023/07/02 11:32:27;;;;;;;;;;;19.60;99.90;;;;;;5133115;27;19907;-42
2023/07/02 11:34:53;;;;;;;;;;;19.80;99.90;;;;;;5133760;27;19915;-41
2023/07/02 11:37:19;;;;;;;;;;;19.90;99.90;;;;;;5121475;27;20289;-42
2023/07/02 11:39:45;;;;;;;;;;;19.90;99.90;;;;;;5126380;27;20031;-39
2023/07/02 11:42:10;;;;;;;;;;;19.90;99.90;;;;;;5118407;27;19985;-42
2023/07/02 11:44:36;;;;;;;;;;;19.80;99.90;;;;;;5132864;27;19907;-42
2023/07/02 11:47:01;;;;;;;;;;;19.80;99.90;;;;;;5133678;27;19915;-41
2023/07/02 11:49:27;;;;;;;;;;;19.90;99.90;;;;;;5130395;27;20308;-41
2023/07/02 11:51:52;;;;;;;;;;;19.70;99.90;;;;;;5126447;27;20009;-41
2023/07/02 11:54:18;;;;;;;;;;;19.60;99.90;;;;;;5113358;27;19912;-42
2023/07/02 11:56:44;;;;;;;;;;;19.60;99.90;;;;;;5129086;28;20266;-42
2023/07/02 11:59:10;;;;;;;;;;;19.40;99.90;;;;;;5132611;28;19915;-43
2023/07/02 12:01:35;;;;;;;;;;;19.40;99.90;;;;;;5122587;28;19956;-42
2023/07/02 12:04:01;;;;;;;;;;;19.40;99.90;;;;;;5131743;28;19912;-46
2023/07/02 12:06:27;;;;;;;;;;;19.30;99.90;;;;;;5125571;28;20261;-42
2023/07/02 12:08:53;;;;;;;;;;;19.20;99.90;;;;;;5125574;28;19980;-41
2023/07/02 12:11:18;;;;;;;;;;;19.20;99.90;;;;;;5133464;28;19908;-44
2023/07/02 12:13:43;;;;;;;;;;;19.30;99.90;;;;;;5128397;28;19915;-39
2023/07/02 12:16:09;;;;;;;;;;;19.20;99.90;;;;;;5114818;28;20289;-39
2023/07/02 12:18:34;;;;;;;;;;;19.40;99.90;;;;;;5121012;27;19956;-40
2023/07/02 12:21:00;;;;;;;;;;;19.30;99.90;;;;;;5129402;28;19915;-42
2023/07/02 12:23:25;;;;;;;;;;;19.00;99.90;;;;;;5133376;28;19916;-40
2023/07/02 12:25:51;;;;;;;;;;;18.90;99.90;;;;;;5133640;28;19977;-47
2023/07/02 12:28:17;;;;;;;;;;;18.80;99.90;;;;;;5132416;28;19939;-42
2023/07/02 12:30:42;;;;;;;;;;;18.70;99.90;;;;;;5114771;28;20351;-42
2023/07/02 12:33:08;;;;;;;;;;;18.60;99.90;;;;;;5113182;28;20003;-42
2023/07/02 12:35:33;;;;;;;;;;;18.90;99.90;;;;;;5125554;28;19957;-40
2023/07/02 12:37:59;;;;;;;;;;;19.40;99.90;;;;;;5119875;28;20359;-41
2023/07/02 12:40:25;;;;;;;;;;;19.90;99.90;;;;;;5114192;28;20008;-41
2023/07/02 12:42:50;;;;;;;;;;;19.90;99.90;;;;;;5132393;28;20372;-40
2023/07/02 12:45:16;;;;;;;;;;;19.70;99.90;;;;;;5120586;28;19914;-40
2023/07/02 12:47:42;;;;;;;;;;;19.50;99.90;;;;;;5112703;28;19937;-40
2023/07/02 12:50:08;;;;;;;;;;;19.30;99.90;;;;;;5111847;28;19914;-43
2023/07/02 12:52:33;;;;;;;;;;;19.10;99.90;;;;;;5126939;28;19911;-40
2023/07/02 12:54:59;;;;;;;;;;;19.00;99.70;;;;;;5130586;28;19919;-39
2023/07/02 12:57:26;;;;;;;;;;;18.90;99.90;;;;;;5112630;28;19920;-39
2023/07/02 12:59:55;;;;;;;;;;;18.70;99.90;;;;;;5132533;28;19915;-41
2023/07/02 13:02:21;;;;;;;;;;;18.60;99.90;;;;;;5128460;27;20316;-40
2023/07/02 13:04:46;;;;;;;;;;;18.60;99.90;;;;;;5115942;28;19908;-42
2023/07/02 13:07:12;;;;;;;;;;;18.60;99.90;;;;;;5116030;28;19908;-42
2023/07/02 13:09:37;;;;;;;;;;;18.50;99.90;;;;;;5115321;28;20346;-40
2023/07/02 13:12:03;;;;;;;;;;;18.50;99.90;;;;;;5132886;27;20322;-40
2023/07/02 13:14:28;;;;;;;;;;;18.50;99.90;;;;;;5136464;27;20297;-41
2023/07/02 13:16:54;;;;;;;;;;;18.40;99.90;;;;;;5123212;27;20787;-42
2023/07/02 13:19:19;;;;;;;;;;;18.40;99.90;;;;;;5129603;27;19927;-40
2023/07/02 13:21:45;;;;;;;;;;;18.40;99.90;;;;;;5121646;27;19919;-44
2023/07/02 13:24:11;;;;;;;;;;;18.50;99.90;;;;;;5135472;27;20355;-40
2023/07/02 13:26:37;;;;;;;;;;;18.70;99.90;;;;;;5134968;27;19958;-45
2023/07/02 13:29:02;;;;;;;;;;;19.10;99.90;;;;;;5135100;27;20403;-41
2023/07/02 13:31:28;;;;;;;;;;;19.60;99.90;;;;;;5134992;27;20388;-42
2023/07/02 13:33:53;;;;;;;;;;;19.90;99.90;;;;;;5136211;27;19908;-40
2023/07/02 13:36:19;;;;;;;;;;;19.70;99.90;;;;;;5135479;27;20373;-41
2023/07/02 13:38:44;;;;;;;;;;;19.50;99.90;;;;;;5126365;27;19923;-40
2023/07/02 13:41:10;;;;;;;;;;;19.60;99.90;;;;;;5135311;27;19966;-41
2023/07/02 13:43:36;;;;;;;;;;;20.10;98.70;;;;;;5135893;27;19919;-42
2023/07/02 13:46:02;;;;;;;;;;;20.40;99.90;;;;;;5135331;27;20371;-41
2023/07/02 13:48:27;;;;;;;;;;;20.70;99.90;;;;;;5135852;27;19943;-40
2023/07/02 13:50:53;;;;;;;;;;;20.70;98.60;;;;;;5135646;27;20415;-44
2023/07/02 13:53:19;;;;;;;;;;;20.90;96.30;;;;;;5135277;27;19946;-41
2023/07/02 13:55:45;;;;;;;;;;;21.00;97.40;;;;;;5135584;27;19959;-42
2023/07/02 13:58:10;;;;;;;;;;;21.10;96.90;;;;;;5119349;27;19912;-42
2023/07/02 14:00:36;;;;;;;;;;;21.10;96.80;;;;;;5134871;27;19915;-40
2023/07/02 14:03:01;;;;;;;;;;;21.40;94.70;;;;;;5116785;27;19908;-41
2023/07/02 14:05:27;;;;;;;;;;;21.80;96.50;;;;;;5114022;28;19908;-40
2023/07/02 14:07:53;;;;;;;;;;;21.60;93.10;;;;;;5125602;27;19911;-42